sensor_id;sensor_type;location;lat;lon;timestamp;P1;durP1;ratioP1;P2;durP2;ratioP2
4634;SDS011;2330;48.158;11.816;2023-08-21T00:01:28;7.97;;;7.27;;
4634;SDS011;2330;48.158;11.816;2023-08-21T00:03:55;9.37;;;8.20;;
4634;SDS011;2330;48.158;11.816;2023-08-21T00:06:22;9.00;;;7.30;;
4634;SDS011;2330;48.158;11.816;2023-08-21T00:08:49;10.97;;;8.00;;
4634;SDS011;2330;48.158;11.816;2023-08-21T00:11:16;6.90;;;6.30;;
4634;SDS011;2330;48.158;11.816;2023-08-21T00:13:42;8.60;;;7.80;;
4634;SDS011;2330;48.158;11.816;2023-08-21T00:16:11;9.43;;;8.53;;
4634;SDS011;2330;48.158;11.816;2023-08-21T00:18:38;12.13;;;8.00;;
4634;SDS011;2330;48.158;11.816;2023-08-21T00:21:05;8.80;;;8.10;;
4634;SDS011;2330;48.158;11.816;2023-08-21T00:23:31;10.77;;;8.37;;
4634;SDS011;2330;48.158;11.816;2023-08-21T00:25:58;7.70;;;7.10;;
4634;SDS011;2330;48.158;11.816;2023-08-21T00:28:25;8.77;;;6.80;;
4634;SDS011;2330;48.158;11.816;2023-08-21T00:30:59;8.73;;;7.93;;
4634;SDS011;2330;48.158;11.816;2023-08-21T00:33:27;12.13;;;7.83;;
4634;SDS011;2330;48.158;11.816;2023-08-21T00:35:54;9.70;;;8.90;;
4634;SDS011;2330;48.158;11.816;2023-08-21T00:38:21;9.20;;;8.13;;
4634;SDS011;2330;48.158;11.816;2023-08-21T00:40:48;10.00;;;9.03;;
4634;SDS011;2330;48.158;11.816;2023-08-21T00:43:15;9.13;;;8.30;;
4634;SDS011;2330;48.158;11.816;2023-08-21T00:45:43;14.63;;;8.80;;
4634;SDS011;2330;48.158;11.816;2023-08-21T00:48:11;8.70;;;7.93;;
4634;SDS011;2330;48.158;11.816;2023-08-21T00:50:39;7.63;;;7.03;;
4634;SDS011;2330;48.158;11.816;2023-08-21T00:53:07;8.23;;;7.23;;
4634;SDS011;2330;48.158;11.816;2023-08-21T00:55:34;9.23;;;8.27;;
4634;SDS011;2330;48.158;11.816;2023-08-21T00:58:01;9.47;;;8.67;;
4634;SDS011;2330;48.158;11.816;2023-08-21T01:00:31;9.23;;;8.30;;
4634;SDS011;2330;48.158;11.816;2023-08-21T01:03:00;9.47;;;8.17;;
4634;SDS011;2330;48.158;11.816;2023-08-21T01:05:27;8.47;;;7.67;;
4634;SDS011;2330;48.158;11.816;2023-08-21T01:07:57;8.30;;;7.60;;
4634;SDS011;2330;48.158;11.816;2023-08-21T01:10:39;9.43;;;8.50;;
4634;SDS011;2330;48.158;11.816;2023-08-21T01:13:31;17.50;;;8.57;;
4634;SDS011;2330;48.158;11.816;2023-08-21T01:16:09;8.27;;;7.53;;
4634;SDS011;2330;48.158;11.816;2023-08-21T01:18:37;8.63;;;7.83;;
4634;SDS011;2330;48.158;11.816;2023-08-21T01:21:05;9.97;;;8.10;;
4634;SDS011;2330;48.158;11.816;2023-08-21T01:23:33;8.47;;;7.80;;
4634;SDS011;2330;48.158;11.816;2023-08-21T01:26:01;9.20;;;8.40;;
4634;SDS011;2330;48.158;11.816;2023-08-21T01:28:29;14.00;;;7.63;;
4634;SDS011;2330;48.158;11.816;2023-08-21T01:30:59;8.07;;;7.37;;
4634;SDS011;2330;48.158;11.816;2023-08-21T01:33:26;11.67;;;8.30;;
4634;SDS011;2330;48.158;11.816;2023-08-21T01:35:59;11.30;;;8.87;;
4634;SDS011;2330;48.158;11.816;2023-08-21T01:38:33;8.27;;;7.53;;
4634;SDS011;2330;48.158;11.816;2023-08-21T01:40:59;10.23;;;7.87;;
4634;SDS011;2330;48.158;11.816;2023-08-21T01:43:26;14.33;;;8.57;;
4634;SDS011;2330;48.158;11.816;2023-08-21T01:45:53;8.63;;;7.83;;
4634;SDS011;2330;48.158;11.816;2023-08-21T01:48:21;10.67;;;7.90;;
4634;SDS011;2330;48.158;11.816;2023-08-21T01:50:48;8.43;;;7.73;;
4634;SDS011;2330;48.158;11.816;2023-08-21T01:53:16;9.07;;;8.17;;
4634;SDS011;2330;48.158;11.816;2023-08-21T01:55:43;9.20;;;8.27;;
4634;SDS011;2330;48.158;11.816;2023-08-21T01:58:10;9.40;;;8.50;;
4634;SDS011;2330;48.158;11.816;2023-08-21T02:00:36;9.20;;;8.40;;
4634;SDS011;2330;48.158;11.816;2023-08-21T02:03:03;9.77;;;8.13;;
4634;SDS011;2330;48.158;11.816;2023-08-21T02:05:31;8.57;;;7.73;;
4634;SDS011;2330;48.158;11.816;2023-08-21T02:08:03;8.90;;;8.00;;
4634;SDS011;2330;48.158;11.816;2023-08-21T02:10:30;8.80;;;7.93;;
4634;SDS011;2330;48.158;11.816;2023-08-21T02:12:57;9.20;;;8.50;;
4634;SDS011;2330;48.158;11.816;2023-08-21T02:15:24;9.07;;;8.17;;
4634;SDS011;2330;48.158;11.816;2023-08-21T02:17:51;12.37;;;8.87;;
4634;SDS011;2330;48.158;11.816;2023-08-21T02:20:18;8.70;;;8.00;;
4634;SDS011;2330;48.158;11.816;2023-08-21T02:22:44;8.43;;;7.73;;
4634;SDS011;2330;48.158;11.816;2023-08-21T02:25:11;9.53;;;8.67;;
4634;SDS011;2330;48.158;11.816;2023-08-21T02:27:38;9.67;;;8.03;;
4634;SDS011;2330;48.158;11.816;2023-08-21T02:30:05;10.50;;;7.43;;
4634;SDS011;2330;48.158;11.816;2023-08-21T02:32:35;8.30;;;7.60;;
4634;SDS011;2330;48.158;11.816;2023-08-21T02:35:02;10.83;;;8.80;;
4634;SDS011;2330;48.158;11.816;2023-08-21T02:37:29;8.13;;;7.43;;
4634;SDS011;2330;48.158;11.816;2023-08-21T02:39:56;9.53;;;8.20;;
4634;SDS011;2330;48.158;11.816;2023-08-21T02:42:23;8.50;;;7.70;;
4634;SDS011;2330;48.158;11.816;2023-08-21T02:44:49;8.90;;;8.10;;
4634;SDS011;2330;48.158;11.816;2023-08-21T02:47:16;9.70;;;7.90;;
4634;SDS011;2330;48.158;11.816;2023-08-21T02:49:43;13.03;;;8.10;;
4634;SDS011;2330;48.158;11.816;2023-08-21T02:52:10;9.03;;;8.10;;
4634;SDS011;2330;48.158;11.816;2023-08-21T02:54:36;11.07;;;7.20;;
4634;SDS011;2330;48.158;11.816;2023-08-21T02:57:03;10.47;;;8.03;;
4634;SDS011;2330;48.158;11.816;2023-08-21T02:59:30;7.70;;;7.10;;
4634;SDS011;2330;48.158;11.816;2023-08-21T03:01:56;8.33;;;7.50;;
4634;SDS011;2330;48.158;11.816;2023-08-21T03:04:23;9.30;;;7.53;;
4634;SDS011;2330;48.158;11.816;2023-08-21T03:06:50;7.97;;;7.03;;
4634;SDS011;2330;48.158;11.816;2023-08-21T03:09:17;8.67;;;7.77;;
4634;SDS011;2330;48.158;11.816;2023-08-21T03:11:44;9.27;;;7.77;;
4634;SDS011;2330;48.158;11.816;2023-08-21T03:14:10;8.53;;;7.60;;
4634;SDS011;2330;48.158;11.816;2023-08-21T03:16:37;12.13;;;7.67;;
4634;SDS011;2330;48.158;11.816;2023-08-21T03:19:04;9.50;;;8.20;;
4634;SDS011;2330;48.158;11.816;2023-08-21T03:21:31;11.57;;;7.70;;
4634;SDS011;2330;48.158;11.816;2023-08-21T03:23:58;9.13;;;8.20;;
4634;SDS011;2330;48.158;11.816;2023-08-21T03:26:29;8.57;;;7.77;;
4634;SDS011;2330;48.158;11.816;2023-08-21T03:28:56;8.93;;;8.07;;
4634;SDS011;2330;48.158;11.816;2023-08-21T03:31:23;11.47;;;8.10;;
4634;SDS011;2330;48.158;11.816;2023-08-21T03:33:50;8.83;;;7.93;;
4634;SDS011;2330;48.158;11.816;2023-08-21T03:36:17;8.20;;;7.47;;
4634;SDS011;2330;48.158;11.816;2023-08-21T03:38:45;8.33;;;7.63;;
4634;SDS011;2330;48.158;11.816;2023-08-21T03:41:12;8.00;;;7.30;;
4634;SDS011;2330;48.158;11.816;2023-08-21T03:43:38;9.60;;;7.83;;
4634;SDS011;2330;48.158;11.816;2023-08-21T03:46:05;9.67;;;7.93;;
4634;SDS011;2330;48.158;11.816;2023-08-21T03:48:32;9.77;;;8.80;;
4634;SDS011;2330;48.158;11.816;2023-08-21T03:50:59;10.63;;;8.00;;
4634;SDS011;2330;48.158;11.816;2023-08-21T03:53:25;9.50;;;8.30;;
4634;SDS011;2330;48.158;11.816;2023-08-21T03:55:52;9.40;;;7.73;;
4634;SDS011;2330;48.158;11.816;2023-08-21T03:58:19;13.40;;;7.50;;
4634;SDS011;2330;48.158;11.816;2023-08-21T04:00:46;8.53;;;7.50;;
4634;SDS011;2330;48.158;11.816;2023-08-21T04:03:13;12.30;;;6.83;;
4634;SDS011;2330;48.158;11.816;2023-08-21T04:05:40;13.67;;;8.27;;
4634;SDS011;2330;48.158;11.816;2023-08-21T04:08:06;10.10;;;8.10;;
4634;SDS011;2330;48.158;11.816;2023-08-21T04:10:33;11.23;;;7.87;;
4634;SDS011;2330;48.158;11.816;2023-08-21T04:13:00;8.90;;;8.20;;
4634;SDS011;2330;48.158;11.816;2023-08-21T04:15:29;10.37;;;7.80;;
4634;SDS011;2330;48.158;11.816;2023-08-21T04:17:56;10.10;;;7.67;;
4634;SDS011;2330;48.158;11.816;2023-08-21T04:20:23;12.43;;;7.83;;
4634;SDS011;2330;48.158;11.816;2023-08-21T04:22:50;8.37;;;7.67;;
4634;SDS011;2330;48.158;11.816;2023-08-21T04:25:17;11.70;;;7.60;;
4634;SDS011;2330;48.158;11.816;2023-08-21T04:27:44;9.40;;;8.40;;
4634;SDS011;2330;48.158;11.816;2023-08-21T04:30:11;10.37;;;7.80;;
4634;SDS011;2330;48.158;11.816;2023-08-21T04:32:39;10.17;;;8.00;;
4634;SDS011;2330;48.158;11.816;2023-08-21T04:35:07;9.63;;;7.43;;
4634;SDS011;2330;48.158;11.816;2023-08-21T04:37:37;8.17;;;7.33;;
4634;SDS011;2330;48.158;11.816;2023-08-21T04:40:04;8.90;;;6.83;;
4634;SDS011;2330;48.158;11.816;2023-08-21T04:42:31;10.70;;;7.57;;
4634;SDS011;2330;48.158;11.816;2023-08-21T04:44:58;8.67;;;7.87;;
4634;SDS011;2330;48.158;11.816;2023-08-21T04:47:25;8.40;;;7.60;;
4634;SDS011;2330;48.158;11.816;2023-08-21T04:49:53;8.37;;;7.60;;
4634;SDS011;2330;48.158;11.816;2023-08-21T04:52:21;9.20;;;7.20;;
4634;SDS011;2330;48.158;11.816;2023-08-21T04:54:48;8.93;;;7.93;;
4634;SDS011;2330;48.158;11.816;2023-08-21T04:57:16;8.93;;;7.37;;
4634;SDS011;2330;48.158;11.816;2023-08-21T04:59:44;10.90;;;7.73;;
4634;SDS011;2330;48.158;11.816;2023-08-21T05:02:10;7.90;;;7.10;;
4634;SDS011;2330;48.158;11.816;2023-08-21T05:04:37;10.80;;;7.50;;
4634;SDS011;2330;48.158;11.816;2023-08-21T05:07:04;13.40;;;7.70;;
4634;SDS011;2330;48.158;11.816;2023-08-21T05:09:31;11.47;;;7.57;;
4634;SDS011;2330;48.158;11.816;2023-08-21T05:11:59;10.67;;;7.40;;
4634;SDS011;2330;48.158;11.816;2023-08-21T05:14:25;7.80;;;7.00;;
4634;SDS011;2330;48.158;11.816;2023-08-21T05:16:54;10.90;;;7.63;;
4634;SDS011;2330;48.158;11.816;2023-08-21T05:19:21;11.00;;;7.30;;
4634;SDS011;2330;48.158;11.816;2023-08-21T05:21:48;8.20;;;6.40;;
4634;SDS011;2330;48.158;11.816;2023-08-21T05:24:15;8.63;;;7.77;;
4634;SDS011;2330;48.158;11.816;2023-08-21T05:26:42;7.03;;;6.40;;
4634;SDS011;2330;48.158;11.816;2023-08-21T05:29:09;11.03;;;7.30;;
4634;SDS011;2330;48.158;11.816;2023-08-21T05:31:35;7.00;;;6.40;;
4634;SDS011;2330;48.158;11.816;2023-08-21T05:34:03;7.83;;;7.03;;
4634;SDS011;2330;48.158;11.816;2023-08-21T05:36:29;7.57;;;6.80;;
4634;SDS011;2330;48.158;11.816;2023-08-21T05:38:56;9.43;;;7.00;;
4634;SDS011;2330;48.158;11.816;2023-08-21T05:41:23;10.40;;;6.73;;
4634;SDS011;2330;48.158;11.816;2023-08-21T05:43:50;8.87;;;7.80;;
4634;SDS011;2330;48.158;11.816;2023-08-21T05:46:17;8.07;;;6.60;;
4634;SDS011;2330;48.158;11.816;2023-08-21T05:48:44;7.70;;;7.00;;
4634;SDS011;2330;48.158;11.816;2023-08-21T05:51:11;7.83;;;6.80;;
4634;SDS011;2330;48.158;11.816;2023-08-21T05:53:38;7.00;;;6.30;;
4634;SDS011;2330;48.158;11.816;2023-08-21T05:56:04;9.53;;;6.50;;
4634;SDS011;2330;48.158;11.816;2023-08-21T05:58:31;9.40;;;7.50;;
4634;SDS011;2330;48.158;11.816;2023-08-21T06:00:59;9.60;;;6.77;;
4634;SDS011;2330;48.158;11.816;2023-08-21T06:03:26;7.20;;;6.27;;
4634;SDS011;2330;48.158;11.816;2023-08-21T06:05:52;13.70;;;7.30;;
4634;SDS011;2330;48.158;11.816;2023-08-21T06:08:19;6.87;;;5.77;;
4634;SDS011;2330;48.158;11.816;2023-08-21T06:10:50;7.87;;;6.20;;
4634;SDS011;2330;48.158;11.816;2023-08-21T06:13:17;6.93;;;6.33;;
4634;SDS011;2330;48.158;11.816;2023-08-21T06:15:44;6.90;;;6.10;;
4634;SDS011;2330;48.158;11.816;2023-08-21T06:18:11;7.07;;;6.37;;
4634;SDS011;2330;48.158;11.816;2023-08-21T06:20:38;6.33;;;5.80;;
4634;SDS011;2330;48.158;11.816;2023-08-21T06:23:05;9.07;;;6.30;;
4634;SDS011;2330;48.158;11.816;2023-08-21T06:25:32;11.37;;;6.00;;
4634;SDS011;2330;48.158;11.816;2023-08-21T06:27:59;6.23;;;5.40;;
4634;SDS011;2330;48.158;11.816;2023-08-21T06:30:26;6.43;;;5.73;;
4634;SDS011;2330;48.158;11.816;2023-08-21T06:32:54;12.00;;;6.40;;
4634;SDS011;2330;48.158;11.816;2023-08-21T06:35:21;11.60;;;6.30;;
4634;SDS011;2330;48.158;11.816;2023-08-21T06:37:48;10.57;;;6.53;;
4634;SDS011;2330;48.158;11.816;2023-08-21T06:40:15;8.80;;;4.87;;
4634;SDS011;2330;48.158;11.816;2023-08-21T06:42:42;6.73;;;6.00;;
4634;SDS011;2330;48.158;11.816;2023-08-21T06:45:08;7.83;;;5.27;;
4634;SDS011;2330;48.158;11.816;2023-08-21T06:47:35;11.47;;;6.00;;
4634;SDS011;2330;48.158;11.816;2023-08-21T06:50:02;7.13;;;5.53;;
4634;SDS011;2330;48.158;11.816;2023-08-21T06:52:29;9.40;;;5.50;;
4634;SDS011;2330;48.158;11.816;2023-08-21T06:54:56;8.23;;;5.27;;
4634;SDS011;2330;48.158;11.816;2023-08-21T06:57:23;11.53;;;5.53;;
4634;SDS011;2330;48.158;11.816;2023-08-21T06:59:50;5.93;;;5.33;;
4634;SDS011;2330;48.158;11.816;2023-08-21T07:02:16;6.93;;;5.10;;
4634;SDS011;2330;48.158;11.816;2023-08-21T07:04:43;6.83;;;4.60;;
4634;SDS011;2330;48.158;11.816;2023-08-21T07:07:10;5.90;;;5.10;;
4634;SDS011;2330;48.158;11.816;2023-08-21T07:09:37;15.90;;;5.50;;
4634;SDS011;2330;48.158;11.816;2023-08-21T07:12:05;8.17;;;5.33;;
4634;SDS011;2330;48.158;11.816;2023-08-21T07:14:32;12.00;;;5.50;;
4634;SDS011;2330;48.158;11.816;2023-08-21T07:16:59;11.70;;;6.10;;
4634;SDS011;2330;48.158;11.816;2023-08-21T07:19:26;9.43;;;5.33;;
4634;SDS011;2330;48.158;11.816;2023-08-21T07:21:53;7.77;;;6.20;;
4634;SDS011;2330;48.158;11.816;2023-08-21T07:24:19;9.03;;;5.83;;
4634;SDS011;2330;48.158;11.816;2023-08-21T07:26:47;9.73;;;5.90;;
4634;SDS011;2330;48.158;11.816;2023-08-21T07:29:13;7.57;;;5.20;;
4634;SDS011;2330;48.158;11.816;2023-08-21T07:31:40;6.73;;;5.53;;
4634;SDS011;2330;48.158;11.816;2023-08-21T07:34:07;8.93;;;5.67;;
4634;SDS011;2330;48.158;11.816;2023-08-21T07:36:34;12.53;;;5.67;;
4634;SDS011;2330;48.158;11.816;2023-08-21T07:39:01;9.63;;;6.47;;
4634;SDS011;2330;48.158;11.816;2023-08-21T07:41:28;7.60;;;5.60;;
4634;SDS011;2330;48.158;11.816;2023-08-21T07:43:55;12.70;;;6.03;;
4634;SDS011;2330;48.158;11.816;2023-08-21T07:46:22;9.30;;;6.33;;
4634;SDS011;2330;48.158;11.816;2023-08-21T07:48:49;7.13;;;5.43;;
4634;SDS011;2330;48.158;11.816;2023-08-21T07:51:16;8.03;;;5.47;;
4634;SDS011;2330;48.158;11.816;2023-08-21T07:53:43;12.00;;;6.03;;
4634;SDS011;2330;48.158;11.816;2023-08-21T07:56:10;8.33;;;5.70;;
4634;SDS011;2330;48.158;11.816;2023-08-21T07:58:37;14.63;;;6.23;;
4634;SDS011;2330;48.158;11.816;2023-08-21T08:01:04;13.30;;;6.63;;
4634;SDS011;2330;48.158;11.816;2023-08-21T08:03:31;10.90;;;6.17;;
4634;SDS011;2330;48.158;11.816;2023-08-21T08:05:59;8.80;;;5.83;;
4634;SDS011;2330;48.158;11.816;2023-08-21T08:08:25;11.57;;;5.93;;
4634;SDS011;2330;48.158;11.816;2023-08-21T08:10:52;7.07;;;5.40;;
4634;SDS011;2330;48.158;11.816;2023-08-21T08:13:19;11.90;;;6.40;;
4634;SDS011;2330;48.158;11.816;2023-08-21T08:15:46;6.03;;;5.50;;
4634;SDS011;2330;48.158;11.816;2023-08-21T08:18:13;6.27;;;5.70;;
4634;SDS011;2330;48.158;11.816;2023-08-21T08:20:40;7.63;;;5.83;;
4634;SDS011;2330;48.158;11.816;2023-08-21T08:23:07;7.67;;;5.87;;
4634;SDS011;2330;48.158;11.816;2023-08-21T08:25:34;6.27;;;5.60;;
4634;SDS011;2330;48.158;11.816;2023-08-21T08:28:01;6.23;;;5.50;;
4634;SDS011;2330;48.158;11.816;2023-08-21T08:30:27;7.57;;;5.83;;
4634;SDS011;2330;48.158;11.816;2023-08-21T08:32:54;8.20;;;5.33;;
4634;SDS011;2330;48.158;11.816;2023-08-21T08:35:21;9.67;;;5.23;;
4634;SDS011;2330;48.158;11.816;2023-08-21T08:37:48;7.17;;;5.30;;
4634;SDS011;2330;48.158;11.816;2023-08-21T08:40:15;6.03;;;4.60;;
4634;SDS011;2330;48.158;11.816;2023-08-21T08:42:42;7.63;;;5.47;;
4634;SDS011;2330;48.158;11.816;2023-08-21T08:45:09;6.50;;;5.50;;
4634;SDS011;2330;48.158;11.816;2023-08-21T08:47:39;7.60;;;5.30;;
4634;SDS011;2330;48.158;11.816;2023-08-21T08:50:07;6.83;;;3.97;;
4634;SDS011;2330;48.158;11.816;2023-08-21T08:52:38;5.00;;;4.50;;
4634;SDS011;2330;48.158;11.816;2023-08-21T08:55:06;6.00;;;5.43;;
4634;SDS011;2330;48.158;11.816;2023-08-21T08:57:34;11.27;;;5.27;;
4634;SDS011;2330;48.158;11.816;2023-08-21T09:00:02;8.10;;;5.70;;
4634;SDS011;2330;48.158;11.816;2023-08-21T09:02:30;6.60;;;5.20;;
4634;SDS011;2330;48.158;11.816;2023-08-21T09:04:57;5.90;;;5.40;;
4634;SDS011;2330;48.158;11.816;2023-08-21T09:07:24;7.67;;;5.50;;
4634;SDS011;2330;48.158;11.816;2023-08-21T09:09:51;5.03;;;4.53;;
4634;SDS011;2330;48.158;11.816;2023-08-21T09:12:19;11.17;;;5.60;;
4634;SDS011;2330;48.158;11.816;2023-08-21T09:14:47;5.33;;;4.90;;
4634;SDS011;2330;48.158;11.816;2023-08-21T09:17:14;8.00;;;5.00;;
4634;SDS011;2330;48.158;11.816;2023-08-21T09:19:42;8.70;;;4.80;;
4634;SDS011;2330;48.158;11.816;2023-08-21T09:22:10;13.50;;;5.60;;
4634;SDS011;2330;48.158;11.816;2023-08-21T09:24:39;8.10;;;5.50;;
4634;SDS011;2330;48.158;11.816;2023-08-21T09:27:13;9.33;;;4.60;;
4634;SDS011;2330;48.158;11.816;2023-08-21T09:29:42;7.63;;;5.60;;
4634;SDS011;2330;48.158;11.816;2023-08-21T09:32:09;7.60;;;5.37;;
4634;SDS011;2330;48.158;11.816;2023-08-21T09:34:36;6.93;;;5.10;;
4634;SDS011;2330;48.158;11.816;2023-08-21T09:37:07;10.67;;;5.00;;
4634;SDS011;2330;48.158;11.816;2023-08-21T09:39:35;6.30;;;4.70;;
4634;SDS011;2330;48.158;11.816;2023-08-21T09:42:06;10.33;;;5.90;;
4634;SDS011;2330;48.158;11.816;2023-08-21T09:44:39;8.43;;;5.03;;
4634;SDS011;2330;48.158;11.816;2023-08-21T09:47:09;6.70;;;5.00;;
4634;SDS011;2330;48.158;11.816;2023-08-21T09:49:38;7.17;;;4.80;;
4634;SDS011;2330;48.158;11.816;2023-08-21T09:52:06;9.97;;;5.57;;
4634;SDS011;2330;48.158;11.816;2023-08-21T09:54:34;6.93;;;4.93;;
4634;SDS011;2330;48.158;11.816;2023-08-21T09:57:02;11.33;;;5.17;;
4634;SDS011;2330;48.158;11.816;2023-08-21T09:59:33;8.23;;;5.03;;
4634;SDS011;2330;48.158;11.816;2023-08-21T10:02:00;5.00;;;4.30;;
4634;SDS011;2330;48.158;11.816;2023-08-21T10:04:30;6.30;;;5.23;;
4634;SDS011;2330;48.158;11.816;2023-08-21T10:06:58;12.63;;;4.83;;
4634;SDS011;2330;48.158;11.816;2023-08-21T10:09:29;10.10;;;4.60;;
4634;SDS011;2330;48.158;11.816;2023-08-21T10:11:56;14.57;;;4.97;;
4634;SDS011;2330;48.158;11.816;2023-08-21T10:14:24;7.30;;;5.10;;
4634;SDS011;2330;48.158;11.816;2023-08-21T10:16:52;5.20;;;4.73;;
4634;SDS011;2330;48.158;11.816;2023-08-21T10:19:20;14.30;;;5.20;;
4634;SDS011;2330;48.158;11.816;2023-08-21T10:21:47;6.10;;;4.10;;
4634;SDS011;2330;48.158;11.816;2023-08-21T10:24:34;5.23;;;4.73;;
4634;SDS011;2330;48.158;11.816;2023-08-21T10:27:08;5.23;;;3.93;;
4634;SDS011;2330;48.158;11.816;2023-08-21T10:29:38;9.40;;;3.70;;
4634;SDS011;2330;48.158;11.816;2023-08-21T10:32:05;10.33;;;4.23;;
4634;SDS011;2330;48.158;11.816;2023-08-21T10:34:33;4.37;;;4.03;;
4634;SDS011;2330;48.158;11.816;2023-08-21T10:39:30;4.37;;;4.07;;
4634;SDS011;2330;48.158;11.816;2023-08-21T10:42:06;4.30;;;4.00;;
4634;SDS011;2330;48.158;11.816;2023-08-21T10:49:59;5.80;;;3.90;;
4634;SDS011;2330;48.158;11.816;2023-08-21T10:52:28;4.40;;;4.10;;
4634;SDS011;2330;48.158;11.816;2023-08-21T10:54:58;6.33;;;3.70;;
4634;SDS011;2330;48.158;11.816;2023-08-21T10:57:27;4.67;;;3.77;;
4634;SDS011;2330;48.158;11.816;2023-08-21T10:59:57;4.50;;;4.20;;
4634;SDS011;2330;48.158;11.816;2023-08-21T11:02:28;3.33;;;2.53;;
4634;SDS011;2330;48.158;11.816;2023-08-21T11:04:56;3.40;;;3.10;;
4634;SDS011;2330;48.158;11.816;2023-08-21T11:07:23;3.43;;;2.13;;
4634;SDS011;2330;48.158;11.816;2023-08-21T11:09:51;4.20;;;2.43;;
4634;SDS011;2330;48.158;11.816;2023-08-21T11:12:18;7.50;;;3.03;;
4634;SDS011;2330;48.158;11.816;2023-08-21T11:14:46;4.50;;;3.73;;
4634;SDS011;2330;48.158;11.816;2023-08-21T11:17:14;10.10;;;4.10;;
4634;SDS011;2330;48.158;11.816;2023-08-21T11:19:41;4.50;;;3.33;;
4634;SDS011;2330;48.158;11.816;2023-08-21T11:22:08;5.43;;;3.80;;
4634;SDS011;2330;48.158;11.816;2023-08-21T11:27:04;4.70;;;4.17;;
4634;SDS011;2330;48.158;11.816;2023-08-21T11:29:32;7.47;;;4.40;;
4634;SDS011;2330;48.158;11.816;2023-08-21T11:32:17;4.70;;;4.40;;
4634;SDS011;2330;48.158;11.816;2023-08-21T11:37:16;7.80;;;4.80;;
4634;SDS011;2330;48.158;11.816;2023-08-21T11:42:16;5.73;;;4.67;;
4634;SDS011;2330;48.158;11.816;2023-08-21T11:44:43;7.30;;;5.30;;
4634;SDS011;2330;48.158;11.816;2023-08-21T11:47:12;5.17;;;4.77;;
4634;SDS011;2330;48.158;11.816;2023-08-21T11:49:40;9.33;;;5.07;;
4634;SDS011;2330;48.158;11.816;2023-08-21T11:52:09;5.93;;;5.20;;
4634;SDS011;2330;48.158;11.816;2023-08-21T11:54:38;5.57;;;4.40;;
4634;SDS011;2330;48.158;11.816;2023-08-21T11:57:07;5.57;;;5.00;;
4634;SDS011;2330;48.158;11.816;2023-08-21T11:59:35;5.83;;;4.83;;
4634;SDS011;2330;48.158;11.816;2023-08-21T12:02:07;6.10;;;5.07;;
4634;SDS011;2330;48.158;11.816;2023-08-21T12:04:43;4.30;;;4.00;;
4634;SDS011;2330;48.158;11.816;2023-08-21T12:07:10;4.73;;;4.33;;
4634;SDS011;2330;48.158;11.816;2023-08-21T12:09:38;6.33;;;4.77;;
4634;SDS011;2330;48.158;11.816;2023-08-21T12:12:05;4.70;;;4.13;;
4634;SDS011;2330;48.158;11.816;2023-08-21T12:14:32;4.50;;;4.10;;
4634;SDS011;2330;48.158;11.816;2023-08-21T12:16:59;4.50;;;3.50;;
4634;SDS011;2330;48.158;11.816;2023-08-21T12:19:26;3.77;;;3.47;;
4634;SDS011;2330;48.158;11.816;2023-08-21T12:21:53;3.77;;;3.50;;
4634;SDS011;2330;48.158;11.816;2023-08-21T12:24:20;6.20;;;3.93;;
4634;SDS011;2330;48.158;11.816;2023-08-21T12:26:47;5.03;;;4.27;;
4634;SDS011;2330;48.158;11.816;2023-08-21T12:29:16;4.07;;;3.33;;
4634;SDS011;2330;48.158;11.816;2023-08-21T12:31:43;7.00;;;4.13;;
4634;SDS011;2330;48.158;11.816;2023-08-21T12:34:10;4.50;;;4.10;;
4634;SDS011;2330;48.158;11.816;2023-08-21T12:36:37;5.47;;;4.93;;
4634;SDS011;2330;48.158;11.816;2023-08-21T12:39:04;4.20;;;3.30;;
4634;SDS011;2330;48.158;11.816;2023-08-21T12:41:31;4.20;;;3.90;;
4634;SDS011;2330;48.158;11.816;2023-08-21T12:43:59;4.57;;;3.50;;
4634;SDS011;2330;48.158;11.816;2023-08-21T12:46:26;5.17;;;4.27;;
4634;SDS011;2330;48.158;11.816;2023-08-21T12:48:54;12.67;;;4.40;;
4634;SDS011;2330;48.158;11.816;2023-08-21T12:51:21;6.93;;;4.00;;
4634;SDS011;2330;48.158;11.816;2023-08-21T12:53:48;4.30;;;3.90;;
4634;SDS011;2330;48.158;11.816;2023-08-21T12:56:16;5.57;;;4.13;;
4634;SDS011;2330;48.158;11.816;2023-08-21T12:58:43;4.57;;;3.70;;
4634;SDS011;2330;48.158;11.816;2023-08-21T13:01:10;4.20;;;3.90;;
4634;SDS011;2330;48.158;11.816;2023-08-21T13:03:38;4.90;;;4.13;;
4634;SDS011;2330;48.158;11.816;2023-08-21T13:06:05;4.57;;;4.00;;
4634;SDS011;2330;48.158;11.816;2023-08-21T13:08:32;11.13;;;3.73;;
4634;SDS011;2330;48.158;11.816;2023-08-21T13:10:59;6.00;;;3.90;;
4634;SDS011;2330;48.158;11.816;2023-08-21T13:13:26;12.23;;;3.30;;
4634;SDS011;2330;48.158;11.816;2023-08-21T13:15:53;6.40;;;3.43;;
4634;SDS011;2330;48.158;11.816;2023-08-21T13:18:21;4.33;;;3.93;;
4634;SDS011;2330;48.158;11.816;2023-08-21T13:20:48;4.43;;;3.97;;
4634;SDS011;2330;48.158;11.816;2023-08-21T13:23:14;3.53;;;3.23;;
4634;SDS011;2330;48.158;11.816;2023-08-21T13:25:41;6.53;;;4.10;;
4634;SDS011;2330;48.158;11.816;2023-08-21T13:28:08;10.90;;;3.40;;
4634;SDS011;2330;48.158;11.816;2023-08-21T13:30:36;7.00;;;4.20;;
4634;SDS011;2330;48.158;11.816;2023-08-21T13:33:04;4.27;;;3.60;;
4634;SDS011;2330;48.158;11.816;2023-08-21T13:35:31;4.20;;;3.77;;
4634;SDS011;2330;48.158;11.816;2023-08-21T13:37:58;3.93;;;3.17;;
4634;SDS011;2330;48.158;11.816;2023-08-21T13:40:25;4.60;;;3.77;;
4634;SDS011;2330;48.158;11.816;2023-08-21T13:42:52;6.53;;;4.30;;
4634;SDS011;2330;48.158;11.816;2023-08-21T13:45:19;12.30;;;3.90;;
4634;SDS011;2330;48.158;11.816;2023-08-21T13:47:47;6.57;;;3.43;;
4634;SDS011;2330;48.158;11.816;2023-08-21T13:50:15;4.23;;;3.83;;
4634;SDS011;2330;48.158;11.816;2023-08-21T13:52:45;5.33;;;3.73;;
4634;SDS011;2330;48.158;11.816;2023-08-21T13:55:12;6.50;;;3.60;;
4634;SDS011;2330;48.158;11.816;2023-08-21T13:57:40;6.23;;;3.20;;
4634;SDS011;2330;48.158;11.816;2023-08-21T14:00:08;4.80;;;3.20;;
4634;SDS011;2330;48.158;11.816;2023-08-21T14:02:40;5.33;;;3.33;;
4634;SDS011;2330;48.158;11.816;2023-08-21T14:05:08;8.10;;;4.53;;
4634;SDS011;2330;48.158;11.816;2023-08-21T14:07:36;13.50;;;4.67;;
4634;SDS011;2330;48.158;11.816;2023-08-21T14:10:06;4.13;;;3.27;;
4634;SDS011;2330;48.158;11.816;2023-08-21T14:12:33;3.70;;;3.23;;
4634;SDS011;2330;48.158;11.816;2023-08-21T14:15:01;3.27;;;3.07;;
4634;SDS011;2330;48.158;11.816;2023-08-21T14:17:28;6.03;;;3.90;;
4634;SDS011;2330;48.158;11.816;2023-08-21T14:19:55;3.50;;;3.20;;
4634;SDS011;2330;48.158;11.816;2023-08-21T14:22:22;3.17;;;2.87;;
4634;SDS011;2330;48.158;11.816;2023-08-21T14:24:49;4.73;;;3.40;;
4634;SDS011;2330;48.158;11.816;2023-08-21T14:27:16;6.90;;;3.70;;
4634;SDS011;2330;48.158;11.816;2023-08-21T14:29:43;4.33;;;3.93;;
4634;SDS011;2330;48.158;11.816;2023-08-21T14:32:10;4.97;;;4.47;;
4634;SDS011;2330;48.158;11.816;2023-08-21T14:34:37;4.90;;;3.63;;
4634;SDS011;2330;48.158;11.816;2023-08-21T14:37:04;4.80;;;3.53;;
4634;SDS011;2330;48.158;11.816;2023-08-21T14:39:31;7.17;;;3.90;;
4634;SDS011;2330;48.158;11.816;2023-08-21T14:41:59;5.43;;;3.50;;
4634;SDS011;2330;48.158;11.816;2023-08-21T14:44:26;4.70;;;3.33;;
4634;SDS011;2330;48.158;11.816;2023-08-21T14:46:53;5.37;;;3.57;;
4634;SDS011;2330;48.158;11.816;2023-08-21T14:49:31;3.40;;;3.10;;
4634;SDS011;2330;48.158;11.816;2023-08-21T14:52:00;6.37;;;3.10;;
4634;SDS011;2330;48.158;11.816;2023-08-21T14:54:27;4.50;;;3.00;;
4634;SDS011;2330;48.158;11.816;2023-08-21T14:56:54;3.93;;;3.53;;
4634;SDS011;2330;48.158;11.816;2023-08-21T14:59:21;3.87;;;3.60;;
4634;SDS011;2330;48.158;11.816;2023-08-21T15:01:48;4.37;;;3.97;;
4634;SDS011;2330;48.158;11.816;2023-08-21T15:04:14;8.53;;;4.17;;
4634;SDS011;2330;48.158;11.816;2023-08-21T15:06:41;5.70;;;3.87;;
4634;SDS011;2330;48.158;11.816;2023-08-21T15:09:08;5.00;;;3.90;;
4634;SDS011;2330;48.158;11.816;2023-08-21T15:11:35;8.80;;;4.00;;
4634;SDS011;2330;48.158;11.816;2023-08-21T15:14:02;7.10;;;4.30;;
4634;SDS011;2330;48.158;11.816;2023-08-21T15:16:35;9.87;;;4.63;;